sensor_id;sensor_type;location;lat;lon;timestamp;P1;durP1;ratioP1;P2;durP2;ratioP2
16890;SDS011;8562;52.246;20.966;2022-07-23T00:01:21;6.47;;;5.00;;
16890;SDS011;8562;52.246;20.966;2022-07-23T00:03:47;7.23;;;5.00;;
16890;SDS011;8562;52.246;20.966;2022-07-23T00:06:13;6.40;;;5.80;;
16890;SDS011;8562;52.246;20.966;2022-07-23T00:08:40;5.40;;;4.90;;
16890;SDS011;8562;52.246;20.966;2022-07-23T00:11:06;6.03;;;4.97;;
16890;SDS011;8562;52.246;20.966;2022-07-23T00:13:32;6.67;;;5.13;;
16890;SDS011;8562;52.246;20.966;2022-07-23T00:15:58;5.33;;;4.83;;
16890;SDS011;8562;52.246;20.966;2022-07-23T00:18:24;6.13;;;5.47;;
16890;SDS011;8562;52.246;20.966;2022-07-23T00:20:50;7.33;;;4.77;;
16890;SDS011;8562;52.246;20.966;2022-07-23T00:23:16;6.80;;;5.20;;
16890;SDS011;8562;52.246;20.966;2022-07-23T00:25:43;5.23;;;4.73;;
16890;SDS011;8562;52.246;20.966;2022-07-23T00:28:10;5.83;;;5.07;;
16890;SDS011;8562;52.246;20.966;2022-07-23T00:30:37;11.57;;;5.57;;
16890;SDS011;8562;52.246;20.966;2022-07-23T00:33:04;5.63;;;5.13;;
16890;SDS011;8562;52.246;20.966;2022-07-23T00:35:31;8.07;;;6.20;;
16890;SDS011;8562;52.246;20.966;2022-07-23T00:37:57;9.80;;;5.60;;
16890;SDS011;8562;52.246;20.966;2022-07-23T00:40:24;7.70;;;5.70;;
16890;SDS011;8562;52.246;20.966;2022-07-23T00:42:51;7.33;;;5.13;;
16890;SDS011;8562;52.246;20.966;2022-07-23T00:45:17;6.63;;;5.93;;
16890;SDS011;8562;52.246;20.966;2022-07-23T00:47:43;6.03;;;5.40;;
16890;SDS011;8562;52.246;20.966;2022-07-23T00:50:10;6.50;;;5.27;;
16890;SDS011;8562;52.246;20.966;2022-07-23T00:52:37;7.50;;;5.57;;
16890;SDS011;8562;52.246;20.966;2022-07-23T00:55:04;6.47;;;5.20;;
16890;SDS011;8562;52.246;20.966;2022-07-23T00:57:31;7.00;;;4.93;;
16890;SDS011;8562;52.246;20.966;2022-07-23T00:59:57;7.90;;;5.60;;
16890;SDS011;8562;52.246;20.966;2022-07-23T01:02:26;8.83;;;6.40;;
16890;SDS011;8562;52.246;20.966;2022-07-23T01:04:53;8.40;;;6.50;;
16890;SDS011;8562;52.246;20.966;2022-07-23T01:07:19;6.43;;;5.53;;
16890;SDS011;8562;52.246;20.966;2022-07-23T01:09:45;8.33;;;5.93;;
16890;SDS011;8562;52.246;20.966;2022-07-23T01:12:12;7.10;;;5.73;;
16890;SDS011;8562;52.246;20.966;2022-07-23T01:14:38;8.90;;;6.13;;
16890;SDS011;8562;52.246;20.966;2022-07-23T01:17:05;6.43;;;5.80;;
16890;SDS011;8562;52.246;20.966;2022-07-23T01:19:31;6.43;;;5.53;;
16890;SDS011;8562;52.246;20.966;2022-07-23T01:21:58;10.30;;;5.73;;
16890;SDS011;8562;52.246;20.966;2022-07-23T01:24:26;6.77;;;6.03;;
16890;SDS011;8562;52.246;20.966;2022-07-23T01:26:58;9.60;;;5.83;;
16890;SDS011;8562;52.246;20.966;2022-07-23T01:29:24;5.97;;;5.47;;
16890;SDS011;8562;52.246;20.966;2022-07-23T01:31:52;7.77;;;5.83;;
16890;SDS011;8562;52.246;20.966;2022-07-23T01:34:19;9.00;;;6.00;;
16890;SDS011;8562;52.246;20.966;2022-07-23T01:36:45;6.23;;;5.63;;
16890;SDS011;8562;52.246;20.966;2022-07-23T01:39:14;6.23;;;5.40;;
16890;SDS011;8562;52.246;20.966;2022-07-23T01:41:41;7.57;;;5.60;;
16890;SDS011;8562;52.246;20.966;2022-07-23T01:44:07;8.97;;;5.93;;
16890;SDS011;8562;52.246;20.966;2022-07-23T01:46:35;7.20;;;6.10;;
16890;SDS011;8562;52.246;20.966;2022-07-23T01:49:01;9.07;;;6.07;;
16890;SDS011;8562;52.246;20.966;2022-07-23T01:51:45;7.90;;;5.93;;
16890;SDS011;8562;52.246;20.966;2022-07-23T01:54:47;6.90;;;6.20;;
16890;SDS011;8562;52.246;20.966;2022-07-23T01:57:13;11.77;;;6.57;;
16890;SDS011;8562;52.246;20.966;2022-07-23T01:59:39;6.97;;;6.20;;
16890;SDS011;8562;52.246;20.966;2022-07-23T02:02:07;11.00;;;6.17;;
16890;SDS011;8562;52.246;20.966;2022-07-23T02:04:33;7.33;;;6.23;;
16890;SDS011;8562;52.246;20.966;2022-07-23T02:07:03;6.77;;;5.87;;
16890;SDS011;8562;52.246;20.966;2022-07-23T02:09:29;7.37;;;6.33;;
16890;SDS011;8562;52.246;20.966;2022-07-23T02:11:56;6.37;;;5.30;;
16890;SDS011;8562;52.246;20.966;2022-07-23T02:14:23;8.13;;;5.00;;
16890;SDS011;8562;52.246;20.966;2022-07-23T02:16:49;6.67;;;5.53;;
16890;SDS011;8562;52.246;20.966;2022-07-23T02:19:15;8.40;;;5.47;;
16890;SDS011;8562;52.246;20.966;2022-07-23T02:21:41;7.10;;;6.40;;
16890;SDS011;8562;52.246;20.966;2022-07-23T02:24:07;8.50;;;6.50;;
16890;SDS011;8562;52.246;20.966;2022-07-23T02:26:34;7.63;;;6.27;;
16890;SDS011;8562;52.246;20.966;2022-07-23T02:29:03;8.27;;;6.07;;
16890;SDS011;8562;52.246;20.966;2022-07-23T02:31:31;6.40;;;5.57;;
16890;SDS011;8562;52.246;20.966;2022-07-23T02:33:57;8.13;;;6.20;;
16890;SDS011;8562;52.246;20.966;2022-07-23T02:36:24;7.07;;;6.30;;
16890;SDS011;8562;52.246;20.966;2022-07-23T02:38:51;11.60;;;7.23;;
16890;SDS011;8562;52.246;20.966;2022-07-23T02:41:18;9.33;;;6.63;;
16890;SDS011;8562;52.246;20.966;2022-07-23T02:43:44;11.63;;;7.60;;
16890;SDS011;8562;52.246;20.966;2022-07-23T02:46:12;7.93;;;7.07;;
16890;SDS011;8562;52.246;20.966;2022-07-23T02:48:38;8.73;;;7.07;;
16890;SDS011;8562;52.246;20.966;2022-07-23T02:51:04;11.30;;;7.47;;
16890;SDS011;8562;52.246;20.966;2022-07-23T02:53:36;10.27;;;7.10;;
16890;SDS011;8562;52.246;20.966;2022-07-23T02:56:02;8.90;;;7.27;;
16890;SDS011;8562;52.246;20.966;2022-07-23T02:58:29;10.13;;;6.63;;
16890;SDS011;8562;52.246;20.966;2022-07-23T03:00:55;7.80;;;6.93;;
16890;SDS011;8562;52.246;20.966;2022-07-23T03:03:23;12.17;;;6.50;;
16890;SDS011;8562;52.246;20.966;2022-07-23T03:05:49;11.67;;;7.17;;
16890;SDS011;8562;52.246;20.966;2022-07-23T03:08:15;8.07;;;6.83;;
16890;SDS011;8562;52.246;20.966;2022-07-23T03:10:46;9.03;;;6.60;;
16890;SDS011;8562;52.246;20.966;2022-07-23T03:13:12;9.27;;;7.13;;
16890;SDS011;8562;52.246;20.966;2022-07-23T03:15:39;10.60;;;6.93;;
16890;SDS011;8562;52.246;20.966;2022-07-23T03:18:05;11.77;;;7.70;;
16890;SDS011;8562;52.246;20.966;2022-07-23T03:20:31;9.93;;;6.47;;
16890;SDS011;8562;52.246;20.966;2022-07-23T03:22:57;7.23;;;6.30;;
16890;SDS011;8562;52.246;20.966;2022-07-23T03:25:23;11.87;;;7.27;;
16890;SDS011;8562;52.246;20.966;2022-07-23T03:27:50;8.90;;;6.83;;
16890;SDS011;8562;52.246;20.966;2022-07-23T03:30:16;8.73;;;6.93;;
16890;SDS011;8562;52.246;20.966;2022-07-23T03:32:42;8.93;;;7.07;;
16890;SDS011;8562;52.246;20.966;2022-07-23T03:35:09;9.37;;;6.87;;
16890;SDS011;8562;52.246;20.966;2022-07-23T03:37:41;8.37;;;7.13;;
16890;SDS011;8562;52.246;20.966;2022-07-23T03:40:09;10.87;;;7.67;;
16890;SDS011;8562;52.246;20.966;2022-07-23T03:42:35;10.90;;;7.07;;
16890;SDS011;8562;52.246;20.966;2022-07-23T03:45:02;8.27;;;7.40;;
16890;SDS011;8562;52.246;20.966;2022-07-23T03:47:28;12.23;;;7.13;;
16890;SDS011;8562;52.246;20.966;2022-07-23T03:49:55;10.47;;;7.37;;
16890;SDS011;8562;52.246;20.966;2022-07-23T03:52:21;8.27;;;6.63;;
16890;SDS011;8562;52.246;20.966;2022-07-23T03:54:47;9.67;;;7.03;;
16890;SDS011;8562;52.246;20.966;2022-07-23T03:57:13;9.90;;;7.03;;
16890;SDS011;8562;52.246;20.966;2022-07-23T03:59:40;8.17;;;6.77;;
16890;SDS011;8562;52.246;20.966;2022-07-23T04:02:06;7.50;;;6.80;;
16890;SDS011;8562;52.246;20.966;2022-07-23T04:04:32;10.23;;;7.90;;
16890;SDS011;8562;52.246;20.966;2022-07-23T04:06:59;6.50;;;5.80;;
16890;SDS011;8562;52.246;20.966;2022-07-23T04:09:27;8.90;;;6.37;;
16890;SDS011;8562;52.246;20.966;2022-07-23T04:11:53;9.90;;;7.17;;
16890;SDS011;8562;52.246;20.966;2022-07-23T04:14:19;10.63;;;7.90;;
16890;SDS011;8562;52.246;20.966;2022-07-23T04:16:46;9.33;;;6.63;;
16890;SDS011;8562;52.246;20.966;2022-07-23T04:19:12;8.20;;;6.87;;
16890;SDS011;8562;52.246;20.966;2022-07-23T04:21:51;9.27;;;7.27;;
16890;SDS011;8562;52.246;20.966;2022-07-23T04:24:17;11.40;;;8.03;;
16890;SDS011;8562;52.246;20.966;2022-07-23T04:26:44;9.03;;;6.93;;
16890;SDS011;8562;52.246;20.966;2022-07-23T04:29:10;9.67;;;7.43;;
16890;SDS011;8562;52.246;20.966;2022-07-23T04:31:37;8.67;;;7.53;;
16890;SDS011;8562;52.246;20.966;2022-07-23T04:34:04;11.50;;;6.73;;
16890;SDS011;8562;52.246;20.966;2022-07-23T04:36:31;8.27;;;7.33;;
16890;SDS011;8562;52.246;20.966;2022-07-23T04:38:57;8.53;;;7.23;;
16890;SDS011;8562;52.246;20.966;2022-07-23T04:41:25;7.83;;;6.83;;
16890;SDS011;8562;52.246;20.966;2022-07-23T04:43:51;7.77;;;6.93;;
16890;SDS011;8562;52.246;20.966;2022-07-23T04:46:18;10.60;;;7.73;;
16890;SDS011;8562;52.246;20.966;2022-07-23T04:48:47;10.67;;;7.53;;
16890;SDS011;8562;52.246;20.966;2022-07-23T04:51:13;8.07;;;6.67;;
16890;SDS011;8562;52.246;20.966;2022-07-23T04:53:40;9.53;;;6.50;;
16890;SDS011;8562;52.246;20.966;2022-07-23T04:56:06;9.47;;;6.80;;
16890;SDS011;8562;52.246;20.966;2022-07-23T04:58:32;6.93;;;6.23;;
16890;SDS011;8562;52.246;20.966;2022-07-23T05:00:59;9.90;;;7.50;;
16890;SDS011;8562;52.246;20.966;2022-07-23T05:03:26;8.07;;;6.50;;
16890;SDS011;8562;52.246;20.966;2022-07-23T05:05:52;8.07;;;6.67;;
16890;SDS011;8562;52.246;20.966;2022-07-23T05:08:18;9.30;;;7.63;;
16890;SDS011;8562;52.246;20.966;2022-07-23T05:10:49;8.93;;;7.33;;
16890;SDS011;8562;52.246;20.966;2022-07-23T05:13:16;8.57;;;7.20;;
16890;SDS011;8562;52.246;20.966;2022-07-23T05:15:43;7.97;;;7.10;;
16890;SDS011;8562;52.246;20.966;2022-07-23T05:18:09;9.70;;;6.47;;
16890;SDS011;8562;52.246;20.966;2022-07-23T05:20:36;12.77;;;7.90;;
16890;SDS011;8562;52.246;20.966;2022-07-23T05:23:02;7.53;;;6.50;;
16890;SDS011;8562;52.246;20.966;2022-07-23T05:25:28;8.33;;;7.37;;
16890;SDS011;8562;52.246;20.966;2022-07-23T05:27:54;8.87;;;7.00;;
16890;SDS011;8562;52.246;20.966;2022-07-23T05:30:21;7.77;;;6.80;;
16890;SDS011;8562;52.246;20.966;2022-07-23T05:32:50;7.70;;;6.90;;
16890;SDS011;8562;52.246;20.966;2022-07-23T05:35:16;8.60;;;6.60;;
16890;SDS011;8562;52.246;20.966;2022-07-23T05:37:57;8.43;;;6.80;;
16890;SDS011;8562;52.246;20.966;2022-07-23T05:40:24;7.50;;;5.90;;
16890;SDS011;8562;52.246;20.966;2022-07-23T05:42:51;8.00;;;6.73;;
16890;SDS011;8562;52.246;20.966;2022-07-23T05:45:17;7.00;;;6.00;;
16890;SDS011;8562;52.246;20.966;2022-07-23T05:47:48;8.63;;;6.77;;
16890;SDS011;8562;52.246;20.966;2022-07-23T05:50:22;7.17;;;6.47;;
16890;SDS011;8562;52.246;20.966;2022-07-23T05:52:56;7.73;;;6.60;;
16890;SDS011;8562;52.246;20.966;2022-07-23T05:55:42;6.37;;;5.73;;
16890;SDS011;8562;52.246;20.966;2022-07-23T05:58:08;6.50;;;5.57;;
16890;SDS011;8562;52.246;20.966;2022-07-23T06:00:35;7.20;;;5.70;;
16890;SDS011;8562;52.246;20.966;2022-07-23T06:03:01;7.23;;;6.53;;
16890;SDS011;8562;52.246;20.966;2022-07-23T06:05:29;7.00;;;5.60;;
16890;SDS011;8562;52.246;20.966;2022-07-23T06:07:56;5.35;;;4.95;;
16890;SDS011;8562;52.246;20.966;2022-07-23T06:10:23;6.22;;;5.63;;
16890;SDS011;8562;52.246;20.966;2022-07-23T06:12:50;7.35;;;6.07;;
16890;SDS011;8562;52.246;20.966;2022-07-23T06:15:17;6.70;;;5.82;;
16890;SDS011;8562;52.246;20.966;2022-07-23T06:17:43;6.85;;;5.65;;
16890;SDS011;8562;52.246;20.966;2022-07-23T06:20:09;5.53;;;5.03;;
16890;SDS011;8562;52.246;20.966;2022-07-23T06:22:38;8.32;;;6.50;;
16890;SDS011;8562;52.246;20.966;2022-07-23T06:25:04;8.00;;;5.82;;
16890;SDS011;8562;52.246;20.966;2022-07-23T06:27:31;5.70;;;5.03;;
16890;SDS011;8562;52.246;20.966;2022-07-23T06:29:57;6.18;;;5.57;;
16890;SDS011;8562;52.246;20.966;2022-07-23T06:32:23;6.13;;;5.53;;
16890;SDS011;8562;52.246;20.966;2022-07-23T06:34:49;7.53;;;5.35;;
16890;SDS011;8562;52.246;20.966;2022-07-23T06:37:15;5.00;;;4.55;;
16890;SDS011;8562;52.246;20.966;2022-07-23T06:39:42;6.18;;;4.72;;
16890;SDS011;8562;52.246;20.966;2022-07-23T06:42:08;4.70;;;4.22;;
16890;SDS011;8562;52.246;20.966;2022-07-23T06:44:42;6.05;;;4.93;;
16890;SDS011;8562;52.246;20.966;2022-07-23T06:47:08;4.70;;;4.22;;
16890;SDS011;8562;52.246;20.966;2022-07-23T06:49:35;5.85;;;4.80;;
16890;SDS011;8562;52.246;20.966;2022-07-23T06:52:01;5.03;;;4.63;;
16890;SDS011;8562;52.246;20.966;2022-07-23T06:54:27;4.85;;;4.45;;
16890;SDS011;8562;52.246;20.966;2022-07-23T06:56:53;6.15;;;4.63;;
16890;SDS011;8562;52.246;20.966;2022-07-23T06:59:19;5.13;;;4.72;;
16890;SDS011;8562;52.246;20.966;2022-07-23T07:01:45;5.10;;;4.70;;
16890;SDS011;8562;52.246;20.966;2022-07-23T07:04:12;5.03;;;4.53;;
16890;SDS011;8562;52.246;20.966;2022-07-23T07:06:38;4.82;;;4.35;;
16890;SDS011;8562;52.246;20.966;2022-07-23T07:09:04;7.32;;;5.38;;
16890;SDS011;8562;52.246;20.966;2022-07-23T07:11:30;6.07;;;5.47;;
16890;SDS011;8562;52.246;20.966;2022-07-23T07:13:56;6.93;;;4.55;;
16890;SDS011;8562;52.246;20.966;2022-07-23T07:16:22;7.97;;;4.88;;
16890;SDS011;8562;52.246;20.966;2022-07-23T07:18:48;4.95;;;4.45;;
16890;SDS011;8562;52.246;20.966;2022-07-23T07:21:14;4.97;;;4.55;;
16890;SDS011;8562;52.246;20.966;2022-07-23T07:23:41;6.53;;;5.35;;
16890;SDS011;8562;52.246;20.966;2022-07-23T07:26:07;4.80;;;4.27;;
16890;SDS011;8562;52.246;20.966;2022-07-23T07:28:33;5.60;;;5.10;;
16890;SDS011;8562;52.246;20.966;2022-07-23T07:30:59;6.03;;;5.43;;
16890;SDS011;8562;52.246;20.966;2022-07-23T07:33:26;5.33;;;4.80;;
16890;SDS011;8562;52.246;20.966;2022-07-23T07:35:52;5.57;;;4.90;;
16890;SDS011;8562;52.246;20.966;2022-07-23T07:38:18;6.13;;;4.80;;
16890;SDS011;8562;52.246;20.966;2022-07-23T07:40:44;5.23;;;4.73;;
16890;SDS011;8562;52.246;20.966;2022-07-23T07:43:10;5.80;;;4.67;;
16890;SDS011;8562;52.246;20.966;2022-07-23T07:45:36;5.50;;;5.00;;
16890;SDS011;8562;52.246;20.966;2022-07-23T07:48:03;4.97;;;4.57;;
16890;SDS011;8562;52.246;20.966;2022-07-23T07:50:29;5.13;;;4.63;;
16890;SDS011;8562;52.246;20.966;2022-07-23T07:52:55;4.50;;;4.10;;
16890;SDS011;8562;52.246;20.966;2022-07-23T07:55:21;5.07;;;4.20;;
16890;SDS011;8562;52.246;20.966;2022-07-23T07:57:48;5.67;;;3.87;;
16890;SDS011;8562;52.246;20.966;2022-07-23T08:00:14;5.60;;;4.60;;
16890;SDS011;8562;52.246;20.966;2022-07-23T08:05:06;5.23;;;4.73;;
16890;SDS011;8562;52.246;20.966;2022-07-23T08:07:32;5.13;;;4.63;;
16890;SDS011;8562;52.246;20.966;2022-07-23T08:09:59;6.17;;;4.87;;
16890;SDS011;8562;52.246;20.966;2022-07-23T08:12:25;5.30;;;4.50;;
16890;SDS011;8562;52.246;20.966;2022-07-23T08:14:51;6.67;;;4.53;;
16890;SDS011;8562;52.246;20.966;2022-07-23T08:17:18;5.60;;;5.10;;
16890;SDS011;8562;52.246;20.966;2022-07-23T08:19:44;5.47;;;4.93;;
16890;SDS011;8562;52.246;20.966;2022-07-23T08:22:10;5.10;;;4.30;;
16890;SDS011;8562;52.246;20.966;2022-07-23T08:24:36;4.70;;;4.30;;
16890;SDS011;8562;52.246;20.966;2022-07-23T08:27:02;5.00;;;4.60;;
16890;SDS011;8562;52.246;20.966;2022-07-23T08:29:28;5.50;;;5.00;;
16890;SDS011;8562;52.246;20.966;2022-07-23T08:31:55;5.07;;;4.43;;
16890;SDS011;8562;52.246;20.966;2022-07-23T08:34:21;5.10;;;4.60;;
16890;SDS011;8562;52.246;20.966;2022-07-23T08:36:47;5.47;;;4.97;;
16890;SDS011;8562;52.246;20.966;2022-07-23T08:39:13;5.30;;;4.80;;
16890;SDS011;8562;52.246;20.966;2022-07-23T08:41:39;4.67;;;4.27;;
16890;SDS011;8562;52.246;20.966;2022-07-23T08:44:07;5.50;;;4.73;;
16890;SDS011;8562;52.246;20.966;2022-07-23T08:46:34;5.83;;;4.63;;
16890;SDS011;8562;52.246;20.966;2022-07-23T08:49:01;6.37;;;4.47;;
16890;SDS011;8562;52.246;20.966;2022-07-23T08:51:27;4.63;;;4.23;;
16890;SDS011;8562;52.246;20.966;2022-07-23T08:53:56;4.97;;;4.47;;
16890;SDS011;8562;52.246;20.966;2022-07-23T08:56:22;7.90;;;4.50;;
16890;SDS011;8562;52.246;20.966;2022-07-23T08:58:48;7.47;;;4.47;;
16890;SDS011;8562;52.246;20.966;2022-07-23T09:01:14;7.13;;;4.53;;
16890;SDS011;8562;52.246;20.966;2022-07-23T09:03:40;5.43;;;4.93;;
16890;SDS011;8562;52.246;20.966;2022-07-23T09:06:10;4.63;;;4.23;;
16890;SDS011;8562;52.246;20.966;2022-07-23T09:08:37;4.70;;;4.30;;
16890;SDS011;8562;52.246;20.966;2022-07-23T09:11:07;5.80;;;5.20;;
16890;SDS011;8562;52.246;20.966;2022-07-23T09:16:01;5.23;;;4.73;;
16890;SDS011;8562;52.246;20.966;2022-07-23T09:18:31;4.93;;;4.47;;
16890;SDS011;8562;52.246;20.966;2022-07-23T09:21:08;5.13;;;4.23;;
16890;SDS011;8562;52.246;20.966;2022-07-23T09:23:38;6.27;;;4.13;;
16890;SDS011;8562;52.246;20.966;2022-07-23T09:26:26;4.90;;;4.40;;
16890;SDS011;8562;52.246;20.966;2022-07-23T09:31:18;5.30;;;4.77;;
16890;SDS011;8562;52.246;20.966;2022-07-23T09:33:44;4.50;;;4.10;;
16890;SDS011;8562;52.246;20.966;2022-07-23T09:36:10;4.30;;;3.90;;
16890;SDS011;8562;52.246;20.966;2022-07-23T09:38:48;4.03;;;3.73;;
16890;SDS011;8562;52.246;20.966;2022-07-23T09:41:14;4.40;;;4.00;;
16890;SDS011;8562;52.246;20.966;2022-07-23T09:43:40;4.50;;;4.10;;
16890;SDS011;8562;52.246;20.966;2022-07-23T09:46:19;4.17;;;3.77;;
16890;SDS011;8562;52.246;20.966;2022-07-23T09:48:47;4.97;;;4.47;;
16890;SDS011;8562;52.246;20.966;2022-07-23T09:51:13;4.27;;;3.87;;
16890;SDS011;8562;52.246;20.966;2022-07-23T09:53:45;4.60;;;3.90;;
16890;SDS011;8562;52.246;20.966;2022-07-23T09:56:12;7.40;;;3.67;;
16890;SDS011;8562;52.246;20.966;2022-07-23T09:58:40;4.20;;;3.80;;
16890;SDS011;8562;52.246;20.966;2022-07-23T10:01:13;4.73;;;3.93;;
16890;SDS011;8562;52.246;20.966;2022-07-23T10:03:40;4.80;;;3.73;;
16890;SDS011;8562;52.246;20.966;2022-07-23T10:06:45;9.20;;;3.57;;
16890;SDS011;8562;52.246;20.966;2022-07-23T10:09:36;3.33;;;3.10;;
16890;SDS011;8562;52.246;20.966;2022-07-23T10:12:17;6.70;;;3.63;;
16890;SDS011;8562;52.246;20.966;2022-07-23T10:14:58;3.43;;;3.13;;
16890;SDS011;8562;52.246;20.966;2022-07-23T10:17:25;4.23;;;3.80;;
16890;SDS011;8562;52.246;20.966;2022-07-23T10:19:53;4.57;;;3.83;;
16890;SDS011;8562;52.246;20.966;2022-07-23T10:27:50;3.90;;;3.40;;
16890;SDS011;8562;52.246;20.966;2022-07-23T10:35:38;3.87;;;3.20;;
16890;SDS011;8562;52.246;20.966;2022-07-23T10:38:11;5.57;;;3.97;;
16890;SDS011;8562;52.246;20.966;2022-07-23T10:40:49;4.93;;;3.73;;
16890;SDS011;8562;52.246;20.966;2022-07-23T10:43:19;5.03;;;4.13;;
16890;SDS011;8562;52.246;20.966;2022-07-23T10:45:45;4.67;;;3.80;;
16890;SDS011;8562;52.246;20.966;2022-07-23T10:48:12;5.17;;;4.20;;
16890;SDS011;8562;52.246;20.966;2022-07-23T10:50:39;4.37;;;3.90;;
16890;SDS011;8562;52.246;20.966;2022-07-23T10:57:59;4.37;;;3.97;;
16890;SDS011;8562;52.246;20.966;2022-07-23T11:00:26;5.10;;;4.23;;
16890;SDS011;8562;52.246;20.966;2022-07-23T11:03:04;4.10;;;3.67;;
16890;SDS011;8562;52.246;20.966;2022-07-23T11:05:42;4.33;;;4.03;;
16890;SDS011;8562;52.246;20.966;2022-07-23T11:10:36;4.03;;;3.63;;
16890;SDS011;8562;52.246;20.966;2022-07-23T11:37:04;4.40;;;4.00;;
16890;SDS011;8562;52.246;20.966;2022-07-23T11:39:31;5.77;;;4.67;;
16890;SDS011;8562;52.246;20.966;2022-07-23T11:41:57;5.77;;;4.03;;
16890;SDS011;8562;52.246;20.966;2022-07-23T11:44:31;4.50;;;4.10;;
16890;SDS011;8562;52.246;20.966;2022-07-23T11:46:58;4.20;;;3.73;;
16890;SDS011;8562;52.246;20.966;2022-07-23T11:49:24;4.40;;;4.00;;
16890;SDS011;8562;52.246;20.966;2022-07-23T11:52:07;4.70;;;4.10;;
16890;SDS011;8562;52.246;20.966;2022-07-23T11:54:35;5.03;;;4.07;;
16890;SDS011;8562;52.246;20.966;2022-07-23T11:57:01;5.53;;;4.70;;
16890;SDS011;8562;52.246;20.966;2022-07-23T11:59:28;4.43;;;4.03;;
16890;SDS011;8562;52.246;20.966;2022-07-23T12:01:57;5.93;;;4.80;;
16890;SDS011;8562;52.246;20.966;2022-07-23T12:04:25;5.83;;;5.00;;
16890;SDS011;8562;52.246;20.966;2022-07-23T12:06:51;5.73;;;4.47;;
16890;SDS011;8562;52.246;20.966;2022-07-23T12:09:17;11.97;;;5.20;;
16890;SDS011;8562;52.246;20.966;2022-07-23T12:11:56;5.33;;;4.77;;
16890;SDS011;8562;52.246;20.966;2022-07-23T12:14:23;4.43;;;4.03;;
16890;SDS011;8562;52.246;20.966;2022-07-23T12:17:06;5.27;;;4.53;;
16890;SDS011;8562;52.246;20.966;2022-07-23T12:19:32;5.83;;;4.17;;
16890;SDS011;8562;52.246;20.966;2022-07-23T12:21:58;7.30;;;4.50;;
16890;SDS011;8562;52.246;20.966;2022-07-23T12:24:24;5.60;;;4.70;;
16890;SDS011;8562;52.246;20.966;2022-07-23T12:27:10;7.00;;;4.60;;
16890;SDS011;8562;52.246;20.966;2022-07-23T12:29:36;5.63;;;5.00;;
16890;SDS011;8562;52.246;20.966;2022-07-23T12:32:02;5.23;;;4.73;;
16890;SDS011;8562;52.246;20.966;2022-07-23T12:34:40;4.43;;;4.03;;
16890;SDS011;8562;52.246;20.966;2022-07-23T12:37:06;4.90;;;4.40;;
16890;SDS011;8562;52.246;20.966;2022-07-23T12:39:33;5.50;;;4.83;;
16890;SDS011;8562;52.246;20.966;2022-07-23T12:41:59;6.27;;;4.30;;
16890;SDS011;8562;52.246;20.966;2022-07-23T12:44:25;4.57;;;4.17;;
16890;SDS011;8562;52.246;20.966;2022-07-23T12:46:52;4.87;;;4.47;;
16890;SDS011;8562;52.246;20.966;2022-07-23T12:49:27;5.30;;;4.80;;
16890;SDS011;8562;52.246;20.966;2022-07-23T12:51:53;4.60;;;4.20;;
16890;SDS011;8562;52.246;20.966;2022-07-23T12:54:26;4.43;;;4.03;;
16890;SDS011;8562;52.246;20.966;2022-07-23T12:56:53;8.10;;;4.03;;
16890;SDS011;8562;52.246;20.966;2022-07-23T12:59:19;4.83;;;4.17;;
16890;SDS011;8562;52.246;20.966;2022-07-23T13:01:53;12.40;;;4.33;;
16890;SDS011;8562;52.246;20.966;2022-07-23T13:04:23;4.47;;;4.07;;
16890;SDS011;8562;52.246;20.966;2022-07-23T13:06:56;4.57;;;4.13;;
16890;SDS011;8562;52.246;20.966;2022-07-23T13:09:24;6.43;;;4.20;;
16890;SDS011;8562;52.246;20.966;2022-07-23T13:11:51;5.13;;;4.30;;
16890;SDS011;8562;52.246;20.966;2022-07-23T13:14:18;5.80;;;4.40;;
16890;SDS011;8562;52.246;20.966;2022-07-23T13:16:44;5.17;;;4.57;;
16890;SDS011;8562;52.246;20.966;2022-07-23T13:19:11;7.07;;;4.63;;
16890;SDS011;8562;52.246;20.966;2022-07-23T13:21:37;5.50;;;4.37;;
16890;SDS011;8562;52.246;20.966;2022-07-23T13:24:04;5.83;;;4.47;;
16890;SDS011;8562;52.246;20.966;2022-07-23T13:26:30;6.77;;;4.93;;
16890;SDS011;8562;52.246;20.966;2022-07-23T13:28:56;5.23;;;4.73;;
16890;SDS011;8562;52.246;20.966;2022-07-23T13:31:23;6.10;;;5.50;;
16890;SDS011;8562;52.246;20.966;2022-07-23T13:33:49;5.97;;;4.50;;
16890;SDS011;8562;52.246;20.966;2022-07-23T13:36:15;5.53;;;4.37;;
16890;SDS011;8562;52.246;20.966;2022-07-23T13:38:41;4.50;;;4.10;;
16890;SDS011;8562;52.246;20.966;2022-07-23T13:41:07;4.70;;;3.90;;
16890;SDS011;8562;52.246;20.966;2022-07-23T13:43:34;5.70;;;4.70;;
16890;SDS011;8562;52.246;20.966;2022-07-23T13:46:00;6.57;;;4.73;;
16890;SDS011;8562;52.246;20.966;2022-07-23T13:48:26;5.27;;;4.17;;
16890;SDS011;8562;52.246;20.966;2022-07-23T13:50:54;5.17;;;4.67;;
16890;SDS011;8562;52.246;20.966;2022-07-23T13:53:22;4.90;;;4.40;;
16890;SDS011;8562;52.246;20.966;2022-07-23T13:55:49;6.00;;;4.37;;
16890;SDS011;8562;52.246;20.966;2022-07-23T13:58:15;5.03;;;4.53;;
16890;SDS011;8562;52.246;20.966;2022-07-23T14:00:43;5.10;;;4.33;;
16890;SDS011;8562;52.246;20.966;2022-07-23T14:03:10;5.23;;;4.57;;
16890;SDS011;8562;52.246;20.966;2022-07-23T14:05:36;5.37;;;4.60;;
16890;SDS011;8562;52.246;20.966;2022-07-23T14:08:02;4.20;;;3.87;;
16890;SDS011;8562;52.246;20.966;2022-07-23T14:10:29;5.73;;;4.57;;
16890;SDS011;8562;52.246;20.966;2022-07-23T14:12:55;6.87;;;4.97;;
16890;SDS011;8562;52.246;20.966;2022-07-23T14:15:26;5.00;;;4.47;;
16890;SDS011;8562;52.246;20.966;2022-07-23T14:17:53;4.93;;;4.10;;
16890;SDS011;8562;52.246;20.966;2022-07-23T14:20:19;4.73;;;4.33;;
16890;SDS011;8562;52.246;20.966;2022-07-23T14:22:45;4.50;;;4.10;;
16890;SDS011;8562;52.246;20.966;2022-07-23T14:25:12;6.00;;;4.73;;
16890;SDS011;8562;52.246;20.966;2022-07-23T14:27:38;7.30;;;4.87;;
16890;SDS011;8562;52.246;20.966;2022-07-23T14:30:05;5.13;;;4.63;;
16890;SDS011;8562;52.246;20.966;2022-07-23T14:32:32;5.27;;;4.53;;
16890;SDS011;8562;52.246;20.966;2022-07-23T14:34:58;6.00;;;4.57;;
16890;SDS011;8562;52.246;20.966;2022-07-23T14:37:24;5.27;;;4.73;;
16890;SDS011;8562;52.246;20.966;2022-07-23T14:39:50;5.40;;;4.03;;
16890;SDS011;8562;52.246;20.966;2022-07-23T14:42:17;7.13;;;3.90;;
16890;SDS011;8562;52.246;20.966;2022-07-23T14:44:43;4.97;;;3.80;;
16890;SDS011;8562;52.246;20.966;2022-07-23T14:47:10;13.00;;;4.37;;
16890;SDS011;8562;52.246;20.966;2022-07-23T14:49:36;7.00;;;4.30;;
16890;SDS011;8562;52.246;20.966;2022-07-23T14:52:02;4.97;;;3.63;;
16890;SDS011;8562;52.246;20.966;2022-07-23T14:54:29;4.73;;;3.33;;
16890;SDS011;8562;52.246;20.966;2022-07-23T14:56:56;4.40;;;3.13;;
16890;SDS011;8562;52.246;20.966;2022-07-23T14:59:22;10.73;;;3.80;;
16890;SDS011;8562;52.246;20.966;2022-07-23T15:01:48;11.10;;;4.37;;
16890;SDS011;8562;52.246;20.966;2022-07-23T15:04:15;5.50;;;3.37;;
16890;SDS011;8562;52.246;20.966;2022-07-23T15:06:41;7.80;;;3.33;;
16890;SDS011;8562;52.246;20.966;2022-07-23T15:09:07;4.13;;;3.50;;
16890;SDS011;8562;52.246;20.966;2022-07-23T15:11:33;9.77;;;3.97;;
16890;SDS011;8562;52.246;20.966;2022-07-23T15:14:01;6.33;;;4.67;;
16890;SDS011;8562;52.246;20.966;2022-07-23T15:16:27;6.87;;;4.43;;
16890;SDS011;8562;52.246;20.966;2022-07-23T15:18:54;4.50;;;3.73;;
16890;SDS011;8562;52.246;20.966;2022-07-23T15:21:20;6.20;;;4.80;;
16890;SDS011;8562;52.246;20.966;2022-07-23T15:23:46;7.27;;;4.97;;
16890;SDS011;8562;52.246;20.966;2022-07-23T15:26:14;6.80;;;5.20;;
16890;SDS011;8562;52.246;20.966;2022-07-23T15:28:40;8.00;;;5.53;;
16890;SDS011;8562;52.246;20.966;2022-07-23T15:31:07;8.00;;;4.87;;
16890;SDS011;8562;52.246;20.966;2022-07-23T15:33:33;6.87;;;4.53;;
16890;SDS011;8562;52.246;20.966;2022-07-23T15:36:00;6.03;;;4.83;;
16890;SDS011;8562;52.246;20.966;2022-07-23T15:38:27;5.83;;;5.00;;